Amenia, North Dakota
Current Conditions -  °F | °C
As of 11:53 AM on Saturday 20 Dec 2014 (Local Time) from KFAR Reporting Station
Haze Haze  
Wind Chill: 21°   Ceiling: 700
Heat Index: 32°   Visibility: 5mi
Dew Point: 28°   Wind: 16mph
Humidity: 85%   Direction: 180°S
Pressure: 30.01"   Gusts: NA
Location:  47°N, 97.22°W
Report Text: KFAR 201753Z 18014KT 5SM BR OVC007 00/M02 A3001 RMK AO2 SLP173 T00001022 10000 21011 58007
Loading
Personal Weather Stations






























Interactive Weather Map New forecast layout! Learn more

10-Day Weather Forecast

Advertisements
Track Severe Weather on mobile